Time;durP1;ratioP1;P1;durP2;ratioP2;P2;SDS_P1;SDS_P2;PMS_P1;PMS_P2;Temp;Humidity;BMP_temperature;BMP_pressure;BME280_temperature;BME280_humidity;BME280_pressure;Samples;Min_cycle;Max_cycle;Signal;HPM_P1;HPM_P2
2021/05/29 00:02:03;;;;;;;24.40;10.60;;;;;;;9.94;75.18;101124.78;4969064;28;20030;-66
2021/05/29 00:04:29;;;;;;;22.60;10.90;;;;;;;9.97;75.56;101130.88;4986710;28;20399;-65
2021/05/29 00:06:54;;;;;;;21.90;11.60;;;;;;;9.98;75.33;101121.38;4969155;28;20038;-66
2021/05/29 00:09:20;;;;;;;27.02;11.57;;;;;;;10.05;75.36;101130.91;4969394;28;20029;-66
2021/05/29 00:11:45;;;;;;;27.25;11.38;;;;;;;9.99;75.51;101120.50;4968985;28;20030;-66
2021/05/29 00:14:11;;;;;;;24.95;11.23;;;;;;;9.98;75.67;101121.38;4969076;28;20058;-66
2021/05/29 00:16:36;;;;;;;24.20;12.02;;;;;;;9.99;75.42;101125.69;4985960;28;20093;-66
2021/05/29 00:19:02;;;;;;;28.92;11.30;;;;;;;9.98;75.43;101132.63;4968666;28;20188;-66
2021/05/29 00:21:27;;;;;;;23.30;10.80;;;;;;;10.01;75.33;101134.38;4986521;28;20038;-66
2021/05/29 00:23:53;;;;;;;22.23;11.90;;;;;;;9.99;75.62;101130.88;4968774;28;20054;-65
2021/05/29 00:26:18;;;;;;;28.73;13.30;;;;;;;10.03;75.59;101130.06;4986177;28;20388;-66
2021/05/29 00:28:44;;;;;;;27.05;10.82;;;;;;;10.07;75.46;101129.22;4986347;28;20038;-67
2021/05/29 00:31:09;;;;;;;27.30;11.55;;;;;;;10.08;75.35;101138.72;4986259;28;20043;-66
2021/05/29 00:33:35;;;;;;;23.13;10.52;;;;;;;10.11;75.56;101143.91;4986039;28;20038;-66
2021/05/29 00:36:00;;;;;;;19.85;10.73;;;;;;;10.13;75.42;101137.03;4986171;28;20052;-66
2021/05/29 00:38:26;;;;;;;23.23;10.38;;;;;;;10.10;75.35;101144.78;4986193;28;20433;-66
2021/05/29 00:40:51;;;;;;;23.67;10.82;;;;;;;10.09;75.18;101145.66;4985782;28;20502;-66
2021/05/29 00:43:17;;;;;;;23.55;10.88;;;;;;;10.11;75.20;101145.66;4986183;28;20030;-66
2021/05/29 00:45:42;;;;;;;22.55;10.88;;;;;;;10.12;75.39;101148.28;4985855;28;20042;-66
2021/05/29 00:48:08;;;;;;;28.58;10.43;;;;;;;10.08;75.42;101153.44;4985907;28;20358;-67
2021/05/29 00:50:34;;;;;;;27.27;10.95;;;;;;;10.12;75.04;101156.06;4985855;28;20034;-66
2021/05/29 00:53:00;;;;;;;23.65;11.65;;;;;;;10.17;75.38;101153.47;4968710;28;20123;-66
2021/05/29 00:55:26;;;;;;;22.23;11.43;;;;;;;10.19;75.36;101154.38;4985649;28;20117;-66
2021/05/29 00:57:52;;;;;;;24.15;11.00;;;;;;;10.20;75.30;101161.28;4968030;28;20038;-66
2021/05/29 01:00:21;;;;;;;23.48;9.82;;;;;;;10.15;75.22;101158.66;4985624;28;20015;-66
2021/05/29 01:02:48;;;;;;;27.27;10.52;;;;;;;10.12;75.06;101150.88;4985434;28;20038;-65
2021/05/29 01:05:15;;;;;;;23.25;10.63;;;;;;;10.08;75.11;101156.88;4985625;28;20030;-65
2021/05/29 01:07:41;;;;;;;25.17;10.60;;;;;;;9.99;75.23;101152.50;4985548;28;20027;-66
2021/05/29 01:10:07;;;;;;;23.33;9.93;;;;;;;9.99;75.36;101155.09;4985414;28;20058;-66
2021/05/29 01:12:33;;;;;;;22.92;9.13;;;;;;;10.03;75.17;101158.59;4985289;28;20033;-66
2021/05/29 01:15:00;;;;;;;21.42;9.70;;;;;;;9.99;75.27;101149.91;4985513;28;20019;-66
2021/05/29 01:17:28;;;;;;;28.02;11.60;;;;;;;10.03;75.26;101154.25;4985236;28;20033;-66
2021/05/29 01:19:54;;;;;;;32.28;12.55;;;;;;;10.07;75.05;101152.56;4985345;28;20033;-66
2021/05/29 01:22:37;;;;;;;24.40;10.77;;;;;;;10.06;74.90;101155.16;4984986;28;20026;-66
2021/05/29 01:25:20;;;;;;;25.70;10.40;;;;;;;10.06;75.01;101156.03;4985194;28;20034;-66
2021/05/29 01:27:52;;;;;;;23.63;11.10;;;;;;;10.05;75.00;101159.44;4985050;28;20038;-66
2021/05/29 01:30:18;;;;;;;21.23;10.18;;;;;;;10.01;75.27;101152.53;4984379;28;20058;-66
2021/05/29 01:32:43;;;;;;;19.48;10.20;;;;;;;10.00;75.13;101155.97;4985242;28;20027;-66
2021/05/29 01:35:11;;;;;;;24.20;10.35;;;;;;;9.97;75.13;101150.78;4984901;28;20070;-66
2021/05/29 01:37:37;;;;;;;25.88;11.18;;;;;;;9.94;75.20;101146.41;4984914;28;20027;-66
2021/05/29 01:40:05;;;;;;;25.52;9.85;;;;;;;9.91;75.19;101144.69;4984993;28;20091;-66
2021/05/29 01:42:31;;;;;;;25.30;9.85;;;;;;;9.91;75.19;101149.00;4984695;28;20026;-66
2021/05/29 01:44:57;;;;;;;24.77;10.25;;;;;;;9.94;75.01;101154.19;4984912;28;20050;-66
2021/05/29 01:47:22;;;;;;;22.70;10.27;;;;;;;9.84;75.23;101142.03;4984684;28;20026;-66
2021/05/29 01:49:47;;;;;;;23.25;10.80;;;;;;;9.84;75.39;101149.81;4967473;28;20029;-66
2021/05/29 01:52:13;;;;;;;27.15;11.13;;;;;;;9.86;75.20;101154.16;4984858;28;20029;-66
2021/05/29 01:54:38;;;;;;;24.15;10.50;;;;;;;9.85;75.24;101154.16;4984671;28;20098;-66
2021/05/29 01:57:04;;;;;;;21.75;10.15;;;;;;;9.86;75.29;101154.16;4984468;28;20113;-66
2021/05/29 01:59:29;;;;;;;27.90;11.20;;;;;;;9.82;75.46;101152.41;4984957;28;20422;-66
2021/05/29 02:01:55;;;;;;;23.25;11.18;;;;;;;9.88;75.33;101152.44;4967079;28;20038;-66
2021/05/29 02:04:20;;;;;;;29.50;10.95;;;;;;;9.85;75.38;101151.56;4967175;28;20029;-66
2021/05/29 02:06:45;;;;;;;27.48;12.40;;;;;;;9.89;75.32;101153.28;4984655;28;20019;-66
2021/05/29 02:09:11;;;;;;;22.13;11.75;;;;;;;9.88;75.61;101148.97;4984574;28;20494;-66
2021/05/29 02:11:37;;;;;;;25.00;11.85;;;;;;;9.87;75.59;101148.09;4984441;28;20046;-66
2021/05/29 02:14:02;;;;;;;32.60;11.95;;;;;;;9.86;75.71;101143.78;4967110;28;20046;-66
2021/05/29 02:16:28;;;;;;;28.17;12.27;;;;;;;9.81;75.84;101142.88;4984210;28;20087;-66
2021/05/29 02:18:53;;;;;;;26.92;11.50;;;;;;;9.78;75.91;101148.91;4984450;28;20072;-66
2021/05/29 02:21:19;;;;;;;25.90;12.55;;;;;;;9.79;75.93;101147.22;4984468;28;20078;-66
2021/05/29 02:23:49;;;;;;;34.25;13.65;;;;;;;9.76;75.98;101147.19;4984077;28;20031;-67
2021/05/29 02:26:17;;;;;;;26.35;11.63;;;;;;;9.81;75.81;101153.25;4984446;28;20090;-67
2021/05/29 02:28:44;;;;;;;34.53;12.02;;;;;;;9.78;75.79;101148.91;4966952;28;20031;-67
2021/05/29 02:31:11;;;;;;;32.90;11.85;;;;;;;9.81;75.98;101155.00;4967050;28;20039;-67
2021/05/29 02:33:37;;;;;;;28.65;12.25;;;;;;;9.82;75.93;101151.53;4984334;28;20022;-66
2021/05/29 02:36:04;;;;;;;28.27;10.95;;;;;;;9.79;75.91;101152.41;4984239;28;20497;-66
2021/05/29 02:38:30;;;;;;;27.02;12.80;;;;;;;9.87;75.75;101158.47;4984100;28;20027;-66
2021/05/29 02:40:56;;;;;;;27.20;12.60;;;;;;;9.85;75.77;101155.03;4985089;28;20030;-66
2021/05/29 02:43:22;;;;;;;26.17;12.23;;;;;;;9.87;75.82;101158.47;4988270;28;20089;-67
2021/05/29 02:45:47;;;;;;;25.55;13.05;;;;;;;9.86;75.97;101158.47;4970564;28;20031;-66
2021/05/29 02:48:14;;;;;;;28.80;13.65;;;;;;;9.87;75.89;101160.22;4987931;28;20031;-66
2021/05/29 02:50:41;;;;;;;28.02;14.35;;;;;;;9.90;75.74;101165.44;4970937;28;20026;-66
2021/05/29 02:53:08;;;;;;;34.25;13.52;;;;;;;9.85;75.96;101162.81;4988188;28;20038;-65
2021/05/29 02:55:34;;;;;;;27.33;12.05;;;;;;;9.88;75.98;101161.94;4987876;28;20039;-65
2021/05/29 02:58:00;;;;;;;27.52;12.43;;;;;;;9.91;75.86;101161.97;4988502;28;20030;-66
2021/05/29 03:00:28;;;;;;;29.20;13.05;;;;;;;9.94;75.83;101167.16;4970895;28;20384;-65
2021/05/29 03:02:54;;;;;;;25.52;11.55;;;;;;;9.94;75.92;101156.78;4987787;28;20019;-66
2021/05/29 03:05:20;;;;;;;33.78;12.23;;;;;;;9.97;75.94;101166.34;4987911;28;20561;-67
2021/05/29 03:07:46;;;;;;;28.75;11.60;;;;;;;9.95;76.01;101168.06;4987556;28;20082;-66
2021/05/29 03:10:13;;;;;;;23.63;11.43;;;;;;;9.96;76.04;101164.59;4987800;28;20019;-66
2021/05/29 03:12:39;;;;;;;26.92;12.60;;;;;;;9.99;76.02;101178.44;4987495;28;20495;-66
2021/05/29 03:15:10;;;;;;;26.13;11.50;;;;;;;10.02;75.82;101186.25;4970178;28;20034;-66
2021/05/29 03:17:36;;;;;;;26.27;11.50;;;;;;;10.00;75.85;101181.94;4987374;28;20023;-66
2021/05/29 03:20:04;;;;;;;27.65;12.43;;;;;;;9.99;75.79;101186.25;4987709;28;20019;-65
2021/05/29 03:22:30;;;;;;;25.25;11.65;;;;;;;10.02;75.67;101186.25;4969914;28;20027;-66
2021/05/29 03:24:55;;;;;;;28.15;12.68;;;;;;;9.97;75.88;101179.31;4987575;28;20042;-66
2021/05/29 03:27:21;;;;;;;27.38;14.00;;;;;;;9.99;75.82;101191.44;4987220;28;20034;-66
2021/05/29 03:29:46;;;;;;;32.03;12.88;;;;;;;9.96;75.90;101180.16;4987378;28;20193;-66
2021/05/29 03:32:12;;;;;;;36.40;14.50;;;;;;;9.97;75.85;101189.69;4987382;28;20051;-66
2021/05/29 03:34:37;;;;;;;32.47;15.00;;;;;;;9.98;76.10;101183.63;4969871;28;20083;-66
2021/05/29 03:37:03;;;;;;;31.30;14.35;;;;;;;9.97;76.15;101180.16;4987284;28;20450;-66
2021/05/29 03:39:29;;;;;;;27.23;14.15;;;;;;;9.94;76.13;101187.03;4987410;28;20050;-66
2021/05/29 03:41:54;;;;;;;32.05;13.60;;;;;;;9.98;76.30;101194.00;4986947;28;20106;-66
2021/05/29 03:44:19;;;;;;;30.48;14.27;;;;;;;10.02;76.17;101194.03;4987255;28;20050;-66
2021/05/29 03:46:45;;;;;;;32.00;13.00;;;;;;;10.06;76.14;101196.66;4987021;28;20030;-66
2021/05/29 03:49:10;;;;;;;30.80;12.15;;;;;;;10.08;76.05;101203.56;4986898;28;20193;-66
2021/05/29 03:51:35;;;;;;;27.75;12.02;;;;;;;10.06;76.07;101202.72;4987076;28;20015;-66
2021/05/29 03:54:01;;;;;;;22.73;11.15;;;;;;;10.03;76.12;101202.69;4986263;28;20026;-66
2021/05/29 03:56:26;;;;;;;27.27;12.30;;;;;;;9.90;76.14;101194.81;4969201;28;20057;-66
2021/05/29 03:58:51;;;;;;;24.95;12.57;;;;;;;9.97;76.25;101208.69;4986741;28;20030;-66
2021/05/29 04:01:17;;;;;;;30.67;13.25;;;;;;;10.02;76.25;101207.00;4969238;28;20037;-66
2021/05/29 04:03:42;;;;;;;28.58;12.13;;;;;;;10.04;76.24;101200.13;4969251;28;20493;-65
2021/05/29 04:06:07;;;;;;;31.52;13.93;;;;;;;9.97;76.47;101200.91;4986505;28;20022;-66
2021/05/29 04:08:33;;;;;;;30.63;12.50;;;;;;;10.04;76.44;101204.44;4969164;28;20027;-66
2021/05/29 04:10:58;;;;;;;29.95;13.50;;;;;;;10.11;76.26;101216.56;4968846;28;20019;-66
2021/05/29 04:13:24;;;;;;;30.58;13.00;;;;;;;10.03;76.29;101211.34;4986717;28;20023;-66
2021/05/29 04:15:49;;;;;;;31.98;12.40;;;;;;;10.05;76.41;101206.16;4986427;28;20034;-65
2021/05/29 04:18:14;;;;;;;32.83;13.63;;;;;;;10.08;76.38;101221.72;4968970;28;20041;-66
2021/05/29 04:20:40;;;;;;;31.48;13.05;;;;;;;10.09;76.35;101223.50;4968875;28;20027;-66
2021/05/29 04:23:06;;;;;;;32.42;12.98;;;;;;;10.16;76.42;101225.25;4986224;28;20495;-66
2021/05/29 04:25:31;;;;;;;30.92;12.88;;;;;;;10.18;76.42;101207.09;4986397;28;20027;-65
2021/05/29 04:27:57;;;;;;;34.13;13.52;;;;;;;10.17;76.08;101203.63;4986085;28;20033;-66
2021/05/29 04:30:26;;;;;;;25.50;12.75;;;;;;;10.17;76.17;101215.75;4986241;28;20147;-67
2021/05/29 04:32:52;;;;;;;27.80;13.50;;;;;;;10.14;76.25;101211.41;4986103;28;20034;-66
2021/05/29 04:35:18;;;;;;;23.08;12.25;;;;;;;10.17;76.60;101210.56;4968972;28;20049;-66
2021/05/29 04:37:46;;;;;;;35.38;13.10;;;;;;;10.24;76.28;101216.66;4985865;28;20022;-66
2021/05/29 04:40:12;;;;;;;32.80;13.55;;;;;;;10.24;76.26;101214.06;4986159;28;20236;-66
2021/05/29 04:42:38;;;;;;;28.77;12.75;;;;;;;10.22;76.40;101219.25;4985662;28;20031;-65
2021/05/29 04:45:09;;;;;;;28.92;13.68;;;;;;;10.24;76.60;101227.06;4985987;28;20019;-65
2021/05/29 04:47:34;;;;;;;35.45;13.88;;;;;;;10.30;76.67;101219.31;4968727;28;20471;-66
2021/05/29 04:50:00;;;;;;;34.03;14.07;;;;;;;10.34;76.89;101218.44;4985864;28;20111;-66
2021/05/29 04:52:25;;;;;;;28.08;12.30;;;;;;;10.39;76.92;101219.34;4985783;28;20030;-66
2021/05/29 04:54:51;;;;;;;23.63;11.48;;;;;;;10.57;76.81;101228.13;4985640;28;20051;-66
2021/05/29 04:57:16;;;;;;;23.77;12.13;;;;;;;10.63;76.73;101229.88;4985537;28;20033;-66
2021/05/29 04:59:42;;;;;;;25.48;13.18;;;;;;;10.75;76.39;101242.91;4985809;28;20022;-66
2021/05/29 05:02:07;;;;;;;28.90;13.00;;;;;;;10.82;76.12;101233.41;4985746;28;20023;-66
2021/05/29 05:04:33;;;;;;;33.85;13.32;;;;;;;10.81;75.96;101223.03;4985752;28;20083;-66
2021/05/29 05:06:58;;;;;;;31.75;12.40;;;;;;;10.94;76.05;101236.94;4985556;28;20023;-66
2021/05/29 05:09:23;;;;;;;21.30;10.57;;;;;;;11.05;75.73;101245.63;4985522;28;20022;-66
2021/05/29 05:11:49;;;;;;;23.30;10.15;;;;;;;11.06;75.39;101242.16;4985208;28;20047;-66
2021/05/29 05:14:15;;;;;;;15.27;10.10;;;;;;;11.06;75.25;101244.75;4985400;28;20267;-66
2021/05/29 05:16:40;;;;;;;26.92;8.82;;;;;;;10.99;74.89;101249.06;4985187;28;20027;-67
2021/05/29 05:19:06;;;;;;;18.20;9.90;;;;;;;10.78;74.92;101253.31;4985291;28;20037;-67
2021/05/29 05:21:31;;;;;;;19.00;10.45;;;;;;;10.73;75.41;101251.56;4985216;28;20034;-67
2021/05/29 05:23:56;;;;;;;21.15;10.13;;;;;;;10.72;75.61;101255.88;4984994;28;20498;-67
2021/05/29 05:26:23;;;;;;;19.83;9.35;;;;;;;10.71;75.47;101261.06;4984943;28;20030;-67
2021/05/29 05:28:48;;;;;;;19.48;10.48;;;;;;;10.74;75.64;101255.88;4985278;28;20027;-65
2021/05/29 05:31:14;;;;;;;22.33;10.25;;;;;;;10.82;75.69;101256.78;4984986;28;20026;-66
2021/05/29 05:33:44;;;;;;;24.33;11.07;;;;;;;10.80;75.64;101250.72;4985033;28;20035;-66
2021/05/29 05:36:11;;;;;;;19.50;10.20;;;;;;;10.82;75.68;101255.91;4967742;28;20747;-66
2021/05/29 05:38:38;;;;;;;20.00;9.60;;;;;;;10.84;75.51;101255.09;4984885;28;20022;-66
2021/05/29 05:41:05;;;;;;;16.25;9.20;;;;;;;10.89;75.42;101258.53;4984815;28;20050;-67
2021/05/29 05:43:31;;;;;;;17.20;8.95;;;;;;;10.95;75.32;101260.31;4967614;28;20364;-68
2021/05/29 05:45:56;;;;;;;19.50;9.93;;;;;;;11.01;75.25;101256.84;4984937;28;20057;-66
2021/05/29 05:48:22;;;;;;;18.05;9.45;;;;;;;11.07;75.09;101259.47;4984828;28;20053;-66
2021/05/29 05:50:58;;;;;;;17.25;9.57;;;;;;;11.02;74.93;101248.22;4967396;28;20030;-66
2021/05/29 05:53:25;;;;;;;15.40;8.60;;;;;;;11.13;74.86;101269.88;4984649;28;20047;-66
2021/05/29 05:55:55;;;;;;;15.38;8.77;;;;;;;11.11;74.63;101274.22;4967111;28;20054;-66
2021/05/29 05:58:21;;;;;;;15.27;8.30;;;;;;;11.14;75.07;101279.44;4984483;28;20086;-66
2021/05/29 06:00:47;;;;;;;16.20;8.15;;;;;;;11.22;74.83;101284.66;4984583;28;20046;-66
2021/05/29 06:03:13;;;;;;;12.75;8.05;;;;;;;11.32;74.65;101277.75;4984498;28;20028;-66
2021/05/29 06:05:38;;;;;;;14.10;7.90;;;;;;;11.39;74.38;101287.28;4984448;28;20459;-66
2021/05/29 06:08:04;;;;;;;11.68;7.70;;;;;;;11.43;74.40;101292.50;4951007;28;20344;-66
2021/05/29 06:10:29;;;;;;;11.63;7.30;;;;;;;11.40;74.11;101288.16;4984638;28;20027;-67
2021/05/29 06:12:55;;;;;;;12.18;7.03;;;;;;;11.41;74.21;101292.50;4967028;28;20407;-67
2021/05/29 06:20:50;;;;;;;11.52;7.57;;;;;;;11.52;73.82;101300.31;4984613;28;20235;-68
2021/05/29 06:23:16;;;;;;;11.93;7.50;;;;;;;11.44;73.35;101296.84;4966866;28;20033;-66
2021/05/29 06:25:42;;;;;;;10.40;6.95;;;;;;;11.23;73.28;101299.38;4984476;28;20118;-66
2021/05/29 06:28:07;;;;;;;11.90;7.40;;;;;;;10.99;73.61;101290.63;4984258;28;20018;-66
2021/05/29 06:30:34;;;;;;;12.93;7.85;;;;;;;10.87;74.22;101303.56;4984396;28;20019;-67
2021/05/29 06:32:59;;;;;;;14.85;8.65;;;;;;;10.71;74.57;101289.63;4984518;28;20069;-66
2021/05/29 06:35:25;;;;;;;12.02;7.50;;;;;;;10.66;74.96;101297.41;4984333;28;20050;-67
2021/05/29 06:37:50;;;;;;;11.63;7.88;;;;;;;10.63;75.24;101295.66;4984395;28;20023;-67
2021/05/29 06:40:16;;;;;;;10.48;6.65;;;;;;;10.58;75.30;101294.75;4984304;28;20061;-67
2021/05/29 06:42:41;;;;;;;11.05;7.25;;;;;;;10.54;75.29;101295.63;4966718;28;20029;-67
2021/05/29 06:45:07;;;;;;;12.73;7.20;;;;;;;10.54;75.81;101304.25;4984333;28;20026;-67
2021/05/29 06:47:34;;;;;;;11.23;7.22;;;;;;;10.65;75.71;101288.72;4966833;28;20061;-67
2021/05/29 06:49:59;;;;;;;10.07;6.85;;;;;;;10.76;75.13;101298.31;4966850;28;20023;-67
2021/05/29 06:52:28;;;;;;;9.90;7.15;;;;;;;10.72;75.15;101301.78;4984407;28;20054;-69
2021/05/29 07:00:08;;;;;;;9.18;6.38;;;;;;;11.03;75.18;101317.50;4984370;28;20097;-67
2021/05/29 07:02:34;;;;;;;9.80;5.90;;;;;;;11.09;75.07;101317.53;4966640;28;20467;-68
2021/05/29 07:04:59;;;;;;;8.55;5.18;;;;;;;11.32;75.12;101295.06;4984459;28;20049;-67
2021/05/29 07:07:25;;;;;;;6.55;4.93;;;;;;;11.78;74.62;101309.91;4984171;28;20030;-67
2021/05/29 07:09:51;;;;;;;5.85;5.03;;;;;;;11.95;72.61;101314.25;4984218;28;20360;-67
2021/05/29 07:12:16;;;;;;;9.35;5.07;;;;;;;12.02;72.39;101308.19;4984010;28;20061;-67
2021/05/29 07:14:41;;;;;;;7.57;5.80;;;;;;;12.09;71.96;101312.53;4966848;28;20058;-67
2021/05/29 07:17:08;;;;;;;6.80;5.60;;;;;;;12.05;70.87;101313.38;4983915;28;20551;-65
2021/05/29 07:19:33;;;;;;;7.60;5.80;;;;;;;11.98;71.69;101317.72;4966543;28;20034;-66
2021/05/29 07:21:59;;;;;;;7.30;5.00;;;;;;;12.25;72.04;101320.38;4984157;28;20031;-67
2021/05/29 07:24:24;;;;;;;6.30;5.15;;;;;;;12.58;72.16;101320.31;4984190;28;20022;-67
2021/05/29 07:26:50;;;;;;;7.22;5.45;;;;;;;12.94;71.29;101313.25;4983871;28;20112;-66
2021/05/29 07:29:16;;;;;;;6.85;5.15;;;;;;;13.27;70.53;101327.00;4969328;28;20138;-66
2021/05/29 07:31:43;;;;;;;7.47;5.00;;;;;;;13.51;69.46;101329.53;4987373;28;20051;-65
2021/05/29 07:34:08;;;;;;;6.45;5.18;;;;;;;13.68;68.85;101332.03;4969880;28;20033;-67
2021/05/29 07:36:34;;;;;;;6.68;5.15;;;;;;;13.83;67.91;101325.88;4987135;28;20023;-66
2021/05/29 07:38:59;;;;;;;5.35;4.70;;;;;;;14.08;67.43;101336.09;4969807;28;20077;-67
2021/05/29 07:41:25;;;;;;;4.20;3.80;;;;;;;14.38;66.79;101328.88;4986622;28;20975;-65
2021/05/29 07:43:50;;;;;;;6.30;4.38;;;;;;;14.66;64.68;101321.63;4987233;28;20038;-69
2021/05/29 07:46:18;;;;;;;6.55;4.80;;;;;;;14.96;64.86;101325.69;4986929;28;20042;-64
2021/05/29 07:48:44;;;;;;;6.32;4.32;;;;;;;15.16;64.19;101328.94;4969486;28;20046;-64
2021/05/29 07:51:10;;;;;;;6.40;4.68;;;;;;;15.32;63.01;101330.44;4987171;28;20018;-64
2021/05/29 07:53:40;;;;;;;5.25;4.13;;;;;;;15.55;62.94;101317.94;4986632;28;20105;-65
2021/05/29 07:56:09;;;;;;;8.13;4.22;;;;;;;15.91;62.25;101326.09;4986086;28;20110;-65
2021/05/29 07:58:35;;;;;;;6.38;4.35;;;;;;;16.44;61.72;101313.88;4983751;28;20050;-65
2021/05/29 08:01:01;;;;;;;4.22;3.50;;;;;;;17.76;59.98;101333.06;4984187;28;20061;-65
2021/05/29 08:03:29;;;;;;;4.72;3.28;;;;;;;19.29;56.36;101324.66;4984319;28;20030;-65
2021/05/29 08:05:55;;;;;;;5.55;4.20;;;;;;;20.61;53.29;101323.00;4983653;28;20026;-65
2021/05/29 08:08:22;;;;;;;4.85;4.10;;;;;;;21.54;50.38;101323.94;4983238;28;20027;-66
2021/05/29 08:10:49;;;;;;;5.38;4.40;;;;;;;22.24;47.59;101326.38;4983402;28;20022;-65
2021/05/29 08:13:19;;;;;;;5.38;3.72;;;;;;;22.69;46.21;101322.72;4968220;28;20023;-65
2021/05/29 08:15:46;;;;;;;4.35;3.42;;;;;;;23.10;44.21;101327.06;4986730;28;20468;-65
2021/05/29 08:18:12;;;;;;;4.95;3.38;;;;;;;23.58;42.99;101330.09;4986470;28;20054;-65
2021/05/29 08:20:38;;;;;;;6.05;3.50;;;;;;;23.98;41.06;101326.38;4986667;28;20022;-66
2021/05/29 08:23:06;;;;;;;5.63;3.65;;;;;;;24.46;40.13;101326.59;4968963;28;20130;-65
2021/05/29 08:25:33;;;;;;;5.63;3.72;;;;;;;24.22;36.21;101334.91;4986407;28;20022;-66
2021/05/29 08:27:59;;;;;;;4.97;3.95;;;;;;;23.51;37.07;101334.81;4986240;28;20031;-66
2021/05/29 08:30:25;;;;;;;5.18;4.68;;;;;;;23.07;37.21;101335.97;4986380;28;20065;-66
2021/05/29 08:32:51;;;;;;;6.75;4.45;;;;;;;22.62;38.67;101338.03;4986319;28;20019;-66
2021/05/29 08:35:16;;;;;;;4.97;4.20;;;;;;;22.41;38.91;101338.03;4986236;28;20061;-66
2021/05/29 08:37:44;;;;;;;7.72;4.82;;;;;;;22.17;39.19;101346.09;4986108;28;20061;-66
2021/05/29 08:40:10;;;;;;;5.68;4.32;;;;;;;22.04;38.87;101343.94;4985851;28;20094;-66
2021/05/29 08:42:36;;;;;;;4.97;4.20;;;;;;;22.27;40.13;101343.88;4985683;28;20071;-66
2021/05/29 08:45:01;;;;;;;5.75;4.15;;;;;;;23.05;39.41;101343.16;4986129;28;20031;-66
2021/05/29 08:47:28;;;;;;;5.78;4.57;;;;;;;23.89;38.17;101347.13;4986138;28;20021;-65
2021/05/29 08:49:53;;;;;;;5.30;4.25;;;;;;;24.56;36.77;101348.22;4986000;28;20033;-66
2021/05/29 08:52:19;;;;;;;6.63;4.82;;;;;;;24.95;33.84;101347.97;4986033;28;20047;-65
2021/05/29 08:54:45;;;;;;;6.38;4.47;;;;;;;24.57;34.62;101344.59;4985570;28;20050;-66
2021/05/29 08:57:10;;;;;;;7.53;4.32;;;;;;;24.89;34.68;101346.50;4985690;28;20029;-66
2021/05/29 08:59:35;;;;;;;6.07;4.40;;;;;;;25.30;33.90;101342.50;4985599;28;20030;-65
2021/05/29 09:02:04;;;;;;;5.50;4.70;;;;;;;26.09;33.44;101349.56;4968352;28;20023;-65
2021/05/29 09:04:30;;;;;;;7.13;4.05;;;;;;;26.30;31.72;101347.44;4985473;28;20121;-65
2021/05/29 09:06:56;;;;;;;10.88;4.72;;;;;;;25.93;30.95;101349.63;4985443;28;20031;-66
2021/05/29 09:09:22;;;;;;;6.72;4.40;;;;;;;25.03;31.59;101339.59;4985707;28;20023;-65
2021/05/29 09:11:59;;;;;;;4.35;3.95;;;;;;;24.74;32.97;101349.03;4985386;28;20046;-65
2021/05/29 09:14:29;;;;;;;4.43;3.67;;;;;;;25.23;33.76;101347.31;4968177;28;20398;-66
2021/05/29 09:17:06;;;;;;;4.78;4.18;;;;;;;26.04;32.31;101352.50;4985496;28;20110;-65
2021/05/29 09:19:54;;;;;;;6.20;4.18;;;;;;;26.48;30.85;101347.28;4985416;28;20033;-65
2021/05/29 09:22:23;;;;;;;5.65;4.10;;;;;;;26.84;29.98;101345.09;4985299;28;20042;-65
2021/05/29 09:25:00;;;;;;;5.97;4.00;;;;;;;26.79;30.67;101345.38;4985089;28;20487;-65
2021/05/29 09:27:25;;;;;;;5.22;4.13;;;;;;;27.22;30.25;101341.81;4985141;28;20030;-65
2021/05/29 09:29:51;;;;;;;6.38;3.83;;;;;;;27.70;28.71;101337.03;4985080;28;20034;-67
2021/05/29 09:32:17;;;;;;;4.45;3.55;;;;;;;27.84;29.03;101336.09;4985199;28;20027;-65
2021/05/29 09:34:47;;;;;;;8.93;4.18;;;;;;;28.37;28.21;101343.19;4985205;28;20413;-65
2021/05/29 09:37:14;;;;;;;5.47;3.80;;;;;;;28.63;28.07;101348.53;4985078;28;20042;-65
2021/05/29 09:39:43;;;;;;;4.57;3.70;;;;;;;28.75;27.65;101335.28;4984860;28;20039;-65
2021/05/29 09:42:09;;;;;;;4.03;3.55;;;;;;;28.35;26.82;101336.25;4984728;28;20027;-65
2021/05/29 09:44:36;;;;;;;5.13;3.88;;;;;;;28.18;27.58;101347.13;4985098;28;20019;-66
2021/05/29 09:47:04;;;;;;;5.88;3.95;;;;;;;27.84;27.64;101344.09;4984803;28;20026;-65
2021/05/29 09:49:49;;;;;;;4.20;3.80;;;;;;;27.93;28.48;101347.94;4984787;28;20077;-66
2021/05/29 09:52:30;;;;;;;4.70;3.60;;;;;;;28.43;27.68;101348.13;4967130;28;20023;-65
2021/05/29 09:55:11;;;;;;;4.45;3.17;;;;;;;29.04;27.73;101338.53;4984732;28;20609;-65
2021/05/29 09:57:49;;;;;;;6.15;3.40;;;;;;;29.46;25.76;101345.31;4967255;28;20513;-66
2021/05/29 10:00:15;;;;;;;5.40;3.85;;;;;;;28.64;26.25;101336.91;4984866;28;20023;-65
2021/05/29 10:03:03;;;;;;;4.40;3.72;;;;;;;28.16;27.70;101326.84;4984721;28;20034;-65
2021/05/29 10:05:33;;;;;;;7.25;3.92;;;;;;;28.19;27.99;101342.66;4984800;28;20026;-65
2021/05/29 10:07:59;;;;;;;4.10;3.40;;;;;;;28.36;28.50;101344.16;4984674;28;20053;-65
2021/05/29 10:10:26;;;;;;;4.95;3.47;;;;;;;28.58;27.93;101342.66;4984633;28;20101;-65
2021/05/29 10:12:51;;;;;;;7.45;3.35;;;;;;;28.92;27.49;101340.25;4984509;28;20021;-65
2021/05/29 10:15:17;;;;;;;7.22;3.45;;;;;;;29.14;27.60;101345.91;4984806;28;20086;-65
2021/05/29 10:17:47;;;;;;;4.97;3.67;;;;;;;29.23;27.14;101339.00;4984543;28;20037;-65
2021/05/29 10:20:15;;;;;;;5.00;3.83;;;;;;;29.01;26.64;101346.78;4984366;28;20468;-66
2021/05/29 10:22:43;;;;;;;6.68;4.75;;;;;;;28.90;27.64;101350.19;4984085;28;20101;-66
2021/05/29 10:25:11;;;;;;;4.90;3.85;;;;;;;29.07;27.47;101350.84;4984440;28;20029;-65
2021/05/29 10:27:37;;;;;;;5.10;3.20;;;;;;;29.16;26.65;101350.16;4984328;28;20118;-66
2021/05/29 10:30:04;;;;;;;4.68;3.10;;;;;;;28.94;27.12;101348.16;4984386;28;20038;-66
2021/05/29 10:32:29;;;;;;;4.25;3.10;;;;;;;28.88;27.46;101352.16;4984685;28;20023;-66
2021/05/29 10:34:57;;;;;;;4.50;3.28;;;;;;;28.84;27.69;101353.31;4984391;28;20035;-65
2021/05/29 10:37:53;;;;;;;4.70;2.97;;;;;;;28.92;28.00;101356.28;4984417;28;20119;-66
2021/05/29 10:40:30;;;;;;;5.10;3.28;;;;;;;28.67;27.90;101357.19;4960703;28;20039;-65
2021/05/29 10:43:21;;;;;;;5.40;3.30;;;;;;;28.47;28.07;101353.25;4984101;28;20444;-65
2021/05/29 10:45:52;;;;;;;5.20;3.58;;;;;;;28.28;28.38;101354.50;4984575;28;20054;-66
2021/05/29 10:48:21;;;;;;;5.88;3.65;;;;;;;28.07;28.91;101355.88;4966703;28;20026;-65
2021/05/29 10:53:46;;;;;;;4.93;3.00;;;;;;;27.59;29.35;101364.34;4984355;28;20027;-66
2021/05/29 10:56:23;;;;;;;6.15;3.10;;;;;;;27.10;29.97;101356.81;4984256;28;20138;-66
2021/05/29 10:59:01;;;;;;;5.70;3.55;;;;;;;26.17;31.59;101362.41;4984098;28;20033;-66
2021/05/29 11:01:34;;;;;;;3.50;3.00;;;;;;;25.42;32.87;101356.03;4967174;28;20031;-66
2021/05/29 11:04:12;;;;;;;4.03;3.10;;;;;;;24.60;34.42;101367.50;4987889;28;20094;-65
2021/05/29 11:06:40;;;;;;;4.03;3.15;;;;;;;24.00;35.84;101362.50;4987888;28;20053;-66
2021/05/29 11:09:06;;;;;;;6.22;3.33;;;;;;;23.44;36.68;101359.91;4987757;28;20041;-66
2021/05/29 11:14:08;;;;;;;6.70;4.10;;;;;;;22.57;38.56;101374.38;4988038;28;20034;-66
2021/05/29 11:16:46;;;;;;;6.45;3.17;;;;;;;22.11;39.48;101372.78;4970293;28;20022;-66
2021/05/29 11:19:16;;;;;;;6.15;3.85;;;;;;;21.69;40.29;101371.81;4987613;28;20087;-65
2021/05/29 11:22:00;;;;;;;4.15;3.72;;;;;;;21.24;41.72;101371.75;4987638;28;20022;-65
2021/05/29 11:24:53;;;;;;;6.28;3.95;;;;;;;20.91;42.26;101363.25;4987644;28;20026;-67
2021/05/29 11:27:33;;;;;;;5.43;4.03;;;;;;;20.50;43.19;101370.84;4977154;28;20069;-65
2021/05/29 11:30:08;;;;;;;6.97;4.28;;;;;;;20.12;44.68;101371.25;4987537;28;20061;-65
2021/05/29 11:32:53;;;;;;;5.78;4.20;;;;;;;19.68;45.73;101368.22;4987577;28;20081;-65
2021/05/29 11:35:27;;;;;;;5.53;4.50;;;;;;;19.48;46.39;101368.84;4987367;28;20015;-65
2021/05/29 11:37:56;;;;;;;6.45;4.68;;;;;;;19.27;46.64;101360.69;4987112;28;20030;-67